createdAt,value
2022-09-20T07:18:36.140Z,13.02
2022-09-20T07:19:37.492Z,12.76
2022-09-20T07:20:39.460Z,12.97
2022-09-20T07:21:40.772Z,13.22
2022-09-20T07:26:31.416Z,15.12
2022-09-20T07:27:32.757Z,14.98
2022-09-20T07:38:01.854Z,12.97
2022-09-20T07:43:33.105Z,12.28
2022-09-20T07:44:34.451Z,12.48
2022-09-20T07:48:38.032Z,13.03
2022-09-20T07:49:39.484Z,13.36
2022-09-20T07:52:40.432Z,13.95
2022-09-20T07:53:42.023Z,14.18
2022-09-20T07:54:43.919Z,14.74
2022-09-20T07:55:57.043Z,15.12
2022-09-20T07:56:58.485Z,15.39
2022-09-20T07:57:59.878Z,16.32
2022-09-20T07:59:01.229Z,17.08
2022-09-20T08:00:05.746Z,16.25
2022-09-20T08:01:09.843Z,16.29
2022-09-20T08:02:18.284Z,16.52
2022-09-20T08:07:04.705Z,14.24
2022-09-20T08:08:11.004Z,14.98
2022-09-20T08:09:13.753Z,14.81
2022-09-20T08:10:15.150Z,14.68
2022-09-20T08:14:08.272Z,14.91
2022-09-20T08:15:12.050Z,15.10
2022-09-20T08:16:14.749Z,15.17
2022-09-20T08:17:16.356Z,14.42
2022-09-20T08:18:17.697Z,15.11
2022-09-20T08:19:26.014Z,14.88
2022-09-20T08:20:27.395Z,14.81
2022-09-20T08:33:06.960Z,15.93
2022-09-20T08:34:10.721Z,16.23
2022-09-20T08:35:13.519Z,16.11
2022-09-20T08:36:17.808Z,16.44
2022-09-20T08:37:19.355Z,16.73
2022-09-20T08:40:03.212Z,17.55
2022-09-20T08:41:11.826Z,17.98
2022-09-20T08:42:18.747Z,16.93
2022-09-20T08:43:22.804Z,17.86
2022-09-20T08:44:35.080Z,17.98
2022-09-20T08:45:36.910Z,17.99
2022-09-20T08:47:09.751Z,18.70
2022-09-20T08:48:16.884Z,18.67
2022-09-20T08:49:28.808Z,17.50
2022-09-20T08:50:30.195Z,17.65
2022-09-20T08:51:35.628Z,17.61
2022-09-20T08:52:40.001Z,18.04
2022-09-20T08:53:56.142Z,18.23
2022-09-20T08:54:59.316Z,17.99
2022-09-20T08:56:01.329Z,16.63
2022-09-20T08:57:09.288Z,15.97
2022-09-20T08:58:13.519Z,15.72
2022-09-20T08:59:24.187Z,16.49
2022-09-20T09:00:34.047Z,16.45
2022-09-20T09:01:36.828Z,15.72
2022-09-20T09:02:39.294Z,15.63
2022-09-20T09:03:40.686Z,15.54
2022-09-20T09:04:46.859Z,14.76
2022-09-20T09:05:48.268Z,14.03
2022-09-20T09:06:51.168Z,13.23
2022-09-20T09:07:52.735Z,13.70
2022-09-20T09:08:57.994Z,13.74
2022-09-20T09:10:04.274Z,14.14
2022-09-20T09:11:09.529Z,15.12
2022-09-20T09:12:19.139Z,15.95
2022-09-20T09:13:33.004Z,15.79
2022-09-20T09:14:53.867Z,16.92
2022-09-20T09:16:05.725Z,17.38
2022-09-20T09:17:09.637Z,16.90
2022-09-20T09:18:11.544Z,16.51
2022-09-20T09:19:42.924Z,16.40
2022-09-20T09:20:46.098Z,16.48
2022-09-20T09:21:47.537Z,17.41
2022-09-20T09:23:11.301Z,17.51
2022-09-20T09:24:19.439Z,16.82
2022-09-20T09:25:34.252Z,16.17
2022-09-20T09:26:38.822Z,15.59
2022-09-20T09:28:12.431Z,15.90
2022-09-20T09:29:18.074Z,16.27
2022-09-20T09:30:25.952Z,16.53
2022-09-20T09:31:27.423Z,16.64
2022-09-20T09:32:33.181Z,16.54
2022-09-20T09:33:34.849Z,16.26
2022-09-20T09:34:38.707Z,16.22
2022-09-20T09:35:40.621Z,17.59
2022-09-20T09:36:44.815Z,17.95
2022-09-20T09:38:00.111Z,19.45
2022-09-20T09:39:22.598Z,19.34
2022-09-20T09:40:24.381Z,19.68
2022-09-20T09:41:33.224Z,19.32
2022-09-20T09:42:35.902Z,19.94
2022-09-20T09:43:40.430Z,20.13
2022-09-20T09:44:41.830Z,19.10
2022-09-20T09:45:43.242Z,19.04
2022-09-20T09:46:44.877Z,19.49
2022-09-20T09:47:46.308Z,18.69
2022-09-20T09:49:05.364Z,18.25
2022-09-20T09:50:22.254Z,16.90
2022-09-20T09:51:23.583Z,15.79
2022-09-20T09:52:27.849Z,16.86
2022-09-20T09:53:29.286Z,18.10
2022-09-20T09:55:03.841Z,17.44
2022-09-20T10:02:04.388Z,15.40
2022-09-20T10:03:33.612Z,17.75
2022-09-20T10:04:38.470Z,17.69
2022-09-20T10:06:10.705Z,16.42
2022-09-20T10:07:27.920Z,15.80
2022-09-20T10:08:49.166Z,15.98
2022-09-20T10:10:04.492Z,17.03
2022-09-20T10:11:24.854Z,18.66
2022-09-20T10:12:39.325Z,19.90
2022-09-20T10:14:05.271Z,20.76
2022-09-20T10:15:35.530Z,20.66
2022-09-20T10:17:01.906Z,20.12
2022-09-20T10:18:24.617Z,19.46
2022-09-20T10:19:55.720Z,18.21
2022-09-20T10:31:35.797Z,14.28
2022-09-20T10:32:49.792Z,13.84
2022-09-20T10:41:29.097Z,14.85
2022-09-20T10:42:55.196Z,15.77
2022-09-20T10:44:15.096Z,15.98
2022-09-20T10:46:20.553Z,15.73
2022-09-20T10:47:15.563Z,15.61
2022-09-20T10:48:20.537Z,15.88
2022-09-20T10:49:41.409Z,15.42
2022-09-20T11:00:45.773Z,14.32
2022-09-20T11:01:58.950Z,14.34
2022-09-20T11:14:05.212Z,15.01
2022-09-20T11:15:35.394Z,14.54
2022-09-20T11:16:46.782Z,14.57
2022-09-20T11:18:12.288Z,14.93
2022-09-20T11:19:26.651Z,14.42
2022-09-20T11:32:37.030Z,14.76
2022-09-20T11:33:53.230Z,14.84
2022-09-20T11:34:59.859Z,14.94
2022-09-20T11:42:08.198Z,14.70
2022-09-20T11:43:10.838Z,14.55
2022-09-20T12:02:16.443Z,17.60
2022-09-20T12:03:40.211Z,18.04
2022-09-20T12:04:46.226Z,19.26
2022-09-20T12:06:00.392Z,19.69
2022-09-20T12:07:10.636Z,20.20
2022-09-20T12:14:01.357Z,16.63
2022-09-20T12:15:06.909Z,19.04
2022-09-20T12:16:14.755Z,19.34
2022-09-20T12:17:44.335Z,19.68
2022-09-20T12:18:54.397Z,19.51
2022-09-20T12:19:55.760Z,19.39
2022-09-20T12:21:04.175Z,20.15
2022-09-20T12:22:26.880Z,20.30
2022-09-20T12:23:40.433Z,20.93
2022-09-20T12:24:45.462Z,20.96
2022-09-20T12:32:52.185Z,20.93
2022-09-20T12:34:10.457Z,20.01
2022-09-20T12:35:44.350Z,19.38
2022-09-20T12:37:10.222Z,18.85
2022-09-20T12:38:28.433Z,18.24
2022-09-20T12:39:35.864Z,17.90
2022-09-20T12:40:58.193Z,18.05
2022-09-20T12:42:22.792Z,17.94
2022-09-20T12:43:24.539Z,18.06
2022-09-20T12:44:54.063Z,17.80
2022-09-20T12:46:01.272Z,17.01
2022-09-20T12:47:11.376Z,16.91
2022-09-20T12:48:19.545Z,16.99
2022-09-20T12:49:48.480Z,16.92
2022-09-20T12:51:48.249Z,16.28
2022-09-20T12:52:57.936Z,16.28
2022-09-20T12:54:06.479Z,16.12
2022-09-20T12:55:11.491Z,16.16
2022-09-20T12:56:21.698Z,15.99
2022-09-20T12:57:32.519Z,15.90
2022-09-20T12:58:54.624Z,16.00
2022-09-20T13:04:59.058Z,16.05
2022-09-20T13:06:06.167Z,16.26
2022-09-20T13:07:34.915Z,16.54
2022-09-20T13:08:51.359Z,16.75
2022-09-20T13:09:54.016Z,16.67
2022-09-20T13:11:07.134Z,16.49
2022-09-20T13:12:10.502Z,16.15
2022-09-20T13:13:28.719Z,16.25
2022-09-20T13:14:32.492Z,16.36
2022-09-20T13:15:35.602Z,16.11
2022-09-20T13:22:47.665Z,15.29
2022-09-20T13:23:52.343Z,15.07
2022-09-20T13:24:58.089Z,15.33
2022-09-20T13:33:56.891Z,14.30
2022-09-20T13:35:10.209Z,14.04
2022-09-20T13:45:54.082Z,13.29
2022-09-20T13:46:59.280Z,13.10
2022-09-20T13:56:58.407Z,13.12
2022-09-20T13:58:03.545Z,13.03
2022-09-20T14:16:55.145Z,13.40
2022-09-20T14:17:56.899Z,13.60
2022-09-20T14:24:37.399Z,13.85
2022-09-20T14:25:38.921Z,13.95
2022-09-20T14:26:42.537Z,13.69
2022-09-20T14:27:44.234Z,13.78
2022-09-20T14:28:46.683Z,14.00
2022-09-20T14:29:52.591Z,13.99
2022-09-20T14:31:15.794Z,14.40
2022-09-20T14:32:17.167Z,14.52
2022-09-20T14:33:21.016Z,14.22
2022-09-20T14:34:22.595Z,14.52
2022-09-20T14:35:24.008Z,15.77
2022-09-20T14:48:10.864Z,18.23
2022-09-20T14:49:25.835Z,19.04
2022-09-20T14:50:39.225Z,18.94
2022-09-20T14:51:40.577Z,19.03
2022-09-20T14:52:44.010Z,18.20
2022-09-20T14:53:48.066Z,17.99
2022-09-20T14:55:16.498Z,18.71
2022-09-20T14:56:32.672Z,18.38
2022-09-20T14:57:34.202Z,18.89
2022-09-20T14:59:05.548Z,18.59
2022-09-20T15:07:01.604Z,18.80
2022-09-20T15:08:03.250Z,18.93
2022-09-20T15:09:04.649Z,18.56
2022-09-20T15:10:15.775Z,17.62
2022-09-20T15:11:18.917Z,17.31
2022-09-20T15:18:03.530Z,16.02
2022-09-20T15:19:06.115Z,15.24
2022-09-20T15:24:44.114Z,15.77
2022-09-20T15:25:49.346Z,16.48
2022-09-20T15:26:50.698Z,16.93
2022-09-20T15:27:52.026Z,17.43
2022-09-20T15:28:53.397Z,17.44
2022-09-20T15:29:55.854Z,17.77
2022-09-20T15:30:57.382Z,17.37
2022-09-20T15:31:58.885Z,17.00
2022-09-20T15:33:03.001Z,17.88
2022-09-20T15:34:07.130Z,18.04
2022-09-20T15:35:09.599Z,18.24
2022-09-20T15:36:10.930Z,18.44
2022-09-20T15:37:12.395Z,17.76
2022-09-20T15:38:16.995Z,18.40
2022-09-20T15:39:18.483Z,18.09
2022-09-20T15:40:19.925Z,18.49
2022-09-20T15:41:21.460Z,18.80
2022-09-20T15:48:03.051Z,18.58
2022-09-20T15:49:06.559Z,18.00
2022-09-20T15:50:09.085Z,17.34
2022-09-20T15:51:12.148Z,16.91
2022-09-20T15:52:13.746Z,16.76
2022-09-20T15:53:15.110Z,15.96
2022-09-20T15:54:17.110Z,15.55
2022-09-20T15:55:19.397Z,15.39
2022-09-20T15:56:22.018Z,15.09
2022-09-20T15:57:24.219Z,14.78
2022-09-20T15:58:26.062Z,15.10
2022-09-20T16:06:03.945Z,15.42
2022-09-20T16:07:06.992Z,15.23
2022-09-20T16:08:08.385Z,15.63
2022-09-20T16:09:09.940Z,15.34
2022-09-20T16:10:11.289Z,15.16
2022-09-20T16:11:22.403Z,15.56
2022-09-20T16:12:25.579Z,15.05
2022-09-20T16:21:21.357Z,15.88
2022-09-20T16:22:23.360Z,15.72
2022-09-20T16:23:26.090Z,15.29
2022-09-20T16:24:30.273Z,14.97
2022-09-20T16:25:32.174Z,15.12
2022-09-20T16:34:28.402Z,14.15
2022-09-20T16:35:29.771Z,14.28
2022-09-20T16:36:32.808Z,14.65
2022-09-20T16:37:35.325Z,14.52
2022-09-20T16:38:39.667Z,14.46
2022-09-20T16:39:41.974Z,14.71
2022-09-20T16:40:44.004Z,14.61
2022-09-20T16:41:48.131Z,14.16
